Agricola, Mississippi
Current Conditions -  °F | °C
As of 10:04 PM on Monday 22 Dec 2014 (Local Time) from KMOB Reporting Station
Haze Haze  
Wind Chill: 65°   Ceiling: 3600
Heat Index: 65°   Visibility: 5mi
Dew Point: 65°   Wind: 7mph
Humidity: 100%   Direction: 180°S
Pressure: 29.79"   Gusts: NA
Location:  30.8443°N, 88.5703°W
Report Text: KMOB 230404Z 18006KT 5SM BR FEW005 BKN036 BKN043 18/18 A2979 RMK AO2 T01830183
Loading
Personal Weather Stations






























Interactive Weather Map New forecast layout! Learn more

10-Day Weather Forecast

Advertisements
Track Severe Weather on mobile